Time;durP1;ratioP1;P1;durP2;ratioP2;P2;SDS_P1;SDS_P2;PMS_P1;PMS_P2;Temp;Humidity;BMP_temperature;BMP_pressure;BME280_temperature;BME280_humidity;BME280_pressure;Samples;Min_cycle;Max_cycle;Signal;HPM_P1;HPM_P2
2022/03/12 00:00:00;;;;;;;8.73;4.30;;;;;;;;;;5011412;28;20182;-67
2022/03/12 00:02:26;;;;;;;8.47;4.03;;;;;;;;;;5017971;28;20213;-67
2022/03/12 00:04:51;;;;;;;10.53;4.63;;;;;;;;;;5024954;28;20185;-66
2022/03/12 00:07:17;;;;;;;8.47;4.63;;;;;;;;;;5017689;28;20647;-66
2022/03/12 00:09:43;;;;;;;13.53;4.60;;;;;;;;;;5026271;28;20182;-66
2022/03/12 00:12:10;;;;;;;10.07;4.80;;;;;;;;;;5027347;28;20220;-67
2022/03/12 00:14:37;;;;;;;17.33;4.90;;;;;;;;;;5026099;28;20657;-67
2022/03/12 00:17:03;;;;;;;9.97;4.60;;;;;;;;;;5034032;28;20178;-67
2022/03/12 00:19:30;;;;;;;8.00;4.47;;;;;;;;;;5031485;28;20173;-67
2022/03/12 00:21:57;;;;;;;8.00;4.20;;;;;;;;;;5032362;28;20190;-67
2022/03/12 00:24:23;;;;;;;10.73;4.53;;;;;;;;;;5033905;28;20190;-66
2022/03/12 00:26:50;;;;;;;10.20;4.37;;;;;;;;;;5043604;28;20630;-66
2022/03/12 00:29:16;;;;;;;8.17;4.37;;;;;;;;;;5038168;28;20222;-66
2022/03/12 00:31:43;;;;;;;6.67;4.13;;;;;;;;;;5040251;28;20251;-67
2022/03/12 00:34:09;;;;;;;7.97;4.50;;;;;;;;;;5039094;28;20652;-66
2022/03/12 00:36:34;;;;;;;10.00;4.37;;;;;;;;;;5027514;28;20192;-68
2022/03/12 00:39:00;;;;;;;9.03;4.80;;;;;;;;;;5025897;28;20188;-67
2022/03/12 00:41:26;;;;;;;6.93;4.17;;;;;;;;;;5032739;28;20212;-67
2022/03/12 00:43:51;;;;;;;8.50;4.60;;;;;;;;;;5037750;28;20554;-67
2022/03/12 00:46:17;;;;;;;7.60;4.50;;;;;;;;;;5034906;28;20216;-67
2022/03/12 00:48:42;;;;;;;7.23;4.20;;;;;;;;;;5030117;28;20744;-66
2022/03/12 00:51:09;;;;;;;11.37;4.77;;;;;;;;;;5025994;28;20548;-68
2022/03/12 00:53:35;;;;;;;10.13;4.47;;;;;;;;;;5029901;28;20186;-67
2022/03/12 00:56:00;;;;;;;8.63;4.30;;;;;;;;;;5034594;28;20267;-67
2022/03/12 00:58:26;;;;;;;8.13;4.43;;;;;;;;;;5015640;28;20194;-66
2022/03/12 01:00:51;;;;;;;8.70;4.60;;;;;;;;;;5039611;28;20180;-67
2022/03/12 01:03:16;;;;;;;6.10;4.00;;;;;;;;;;5040567;28;20263;-67
2022/03/12 01:05:45;;;;;;;9.33;4.60;;;;;;;;;;5038363;28;20174;-67
2022/03/12 01:08:10;;;;;;;7.77;4.40;;;;;;;;;;5039171;28;20670;-66
2022/03/12 01:10:35;;;;;;;6.73;4.27;;;;;;;;;;5034915;28;20271;-67
2022/03/12 01:13:01;;;;;;;10.57;4.83;;;;;;;;;;5023639;28;20255;-66
2022/03/12 01:15:26;;;;;;;8.50;4.83;;;;;;;;;;5035772;28;20190;-67
2022/03/12 01:17:51;;;;;;;7.67;4.33;;;;;;;;;;5033631;28;20193;-67
2022/03/12 01:20:21;;;;;;;11.63;4.93;;;;;;;;;;5035839;28;20182;-67
2022/03/12 01:22:46;;;;;;;7.20;4.47;;;;;;;;;;5025903;28;20635;-67
2022/03/12 01:25:12;;;;;;;8.67;4.40;;;;;;;;;;5042868;28;20312;-66
2022/03/12 01:27:37;;;;;;;8.77;5.13;;;;;;;;;;5027094;28;20178;-67
2022/03/12 01:30:07;;;;;;;7.83;4.57;;;;;;;;;;5037907;28;20189;-67
2022/03/12 01:32:32;;;;;;;8.40;4.53;;;;;;;;;;5022051;28;20213;-66
2022/03/12 01:34:57;;;;;;;8.10;4.00;;;;;;;;;;5026711;28;20190;-67
2022/03/12 01:37:23;;;;;;;7.33;4.17;;;;;;;;;;5029263;28;20186;-67
2022/03/12 01:39:49;;;;;;;6.80;4.23;;;;;;;;;;5029881;28;20231;-66
2022/03/12 01:42:16;;;;;;;8.17;4.57;;;;;;;;;;5028993;28;20291;-66
2022/03/12 01:44:42;;;;;;;8.20;5.10;;;;;;;;;;5031152;28;20189;-66
2022/03/12 01:47:09;;;;;;;7.93;4.37;;;;;;;;;;5029549;28;20498;-67
2022/03/12 01:49:36;;;;;;;9.00;4.77;;;;;;;;;;5027847;28;20186;-67
2022/03/12 01:52:02;;;;;;;9.13;4.83;;;;;;;;;;5028540;28;20194;-67
2022/03/12 01:54:29;;;;;;;9.50;4.53;;;;;;;;;;5025570;28;20682;-66
2022/03/12 01:56:56;;;;;;;6.53;4.07;;;;;;;;;;5025002;28;20201;-67
2022/03/12 01:59:23;;;;;;;8.33;4.53;;;;;;;;;;5019330;28;20193;-67
2022/03/12 02:01:51;;;;;;;12.57;5.07;;;;;;;;;;5023175;28;20183;-67
2022/03/12 02:04:22;;;;;;;8.57;4.47;;;;;;;;;;5022940;28;20260;-67
2022/03/12 02:06:47;;;;;;;8.10;4.47;;;;;;;;;;5026221;28;20212;-67
2022/03/12 02:09:15;;;;;;;11.17;4.50;;;;;;;;;;5025024;28;20223;-66
2022/03/12 02:11:42;;;;;;;9.00;4.57;;;;;;;;;;5027177;28;20599;-66
2022/03/12 02:14:12;;;;;;;8.33;4.73;;;;;;;;;;5027497;28;20186;-66
2022/03/12 02:16:43;;;;;;;8.37;4.67;;;;;;;;;;5020936;28;20209;-66
2022/03/12 02:19:08;;;;;;;7.37;4.07;;;;;;;;;;5030947;28;20190;-66
2022/03/12 02:21:42;;;;;;;12.50;5.30;;;;;;;;;;5028009;28;20201;-66
2022/03/12 02:24:12;;;;;;;8.60;4.93;;;;;;;;;;5032479;28;20229;-66
2022/03/12 02:26:41;;;;;;;9.37;5.20;;;;;;;;;;5027990;28;20700;-66
2022/03/12 02:29:09;;;;;;;7.67;4.47;;;;;;;;;;5024892;28;20178;-67
2022/03/12 02:31:35;;;;;;;9.33;5.23;;;;;;;;;;5019425;28;20214;-66
2022/03/12 02:34:01;;;;;;;9.40;5.20;;;;;;;;;;5032044;28;20606;-66
2022/03/12 02:36:28;;;;;;;9.80;4.53;;;;;;;;;;5031936;28;20222;-66
2022/03/12 02:38:54;;;;;;;10.97;4.90;;;;;;;;;;5035624;28;20205;-66
2022/03/12 02:41:22;;;;;;;8.67;4.70;;;;;;;;;;5026233;28;20221;-67
2022/03/12 02:43:47;;;;;;;8.13;5.17;;;;;;;;;;5031018;28;20221;-67
2022/03/12 02:46:14;;;;;;;12.97;4.50;;;;;;;;;;5011491;28;20183;-66
2022/03/12 02:48:40;;;;;;;8.87;5.10;;;;;;;;;;5037359;28;20243;-67
2022/03/12 02:51:06;;;;;;;10.73;5.37;;;;;;;;;;5029561;28;20206;-66
2022/03/12 02:53:32;;;;;;;8.63;4.93;;;;;;;;;;5023482;28;20224;-66
2022/03/12 02:55:57;;;;;;;7.93;4.90;;;;;;;;;;5026303;28;20251;-65
2022/03/12 02:58:22;;;;;;;10.47;5.00;;;;;;;;;;5022869;28;20181;-66
2022/03/12 03:00:48;;;;;;;11.07;5.22;;;;;;;;;;5024259;28;20281;-66
2022/03/12 03:03:13;;;;;;;9.50;4.83;;;;;;;;;;5025793;28;20284;-66
2022/03/12 03:05:48;;;;;;;9.10;4.87;;;;;;;;;;5031760;28;20533;-67
2022/03/12 03:08:21;;;;;;;16.87;5.20;;;;;;;;;;5030884;28;20239;-67
2022/03/12 03:10:49;;;;;;;8.95;5.10;;;;;;;;;;5030550;28;20511;-67
2022/03/12 03:13:18;;;;;;;11.65;5.13;;;;;;;;;;5024711;28;20208;-67
2022/03/12 03:15:51;;;;;;;11.27;4.93;;;;;;;;;;5023191;28;20190;-67
2022/03/12 03:18:21;;;;;;;12.37;4.60;;;;;;;;;;5030631;28;20178;-67
2022/03/12 03:20:47;;;;;;;13.10;5.30;;;;;;;;;;5022140;28;20269;-67
2022/03/12 03:23:13;;;;;;;8.87;5.07;;;;;;;;;;5024154;28;20292;-66
2022/03/12 03:25:39;;;;;;;9.07;5.15;;;;;;;;;;5026831;28;20181;-66
2022/03/12 03:28:06;;;;;;;11.35;6.00;;;;;;;;;;5018481;28;20273;-67
2022/03/12 03:30:36;;;;;;;12.30;4.90;;;;;;;;;;5018357;28;20292;-67
2022/03/12 03:33:05;;;;;;;11.55;5.53;;;;;;;;;;5019101;28;20181;-67
2022/03/12 03:35:30;;;;;;;9.93;5.10;;;;;;;;;;5022808;28;20208;-66
2022/03/12 03:37:56;;;;;;;10.13;5.00;;;;;;;;;;5027344;28;20972;-66
2022/03/12 03:40:22;;;;;;;9.73;5.10;;;;;;;;;;5014349;28;20359;-67
2022/03/12 03:42:47;;;;;;;16.05;5.20;;;;;;;;;;5024612;28;20575;-67
2022/03/12 03:45:21;;;;;;;8.80;4.70;;;;;;;;;;5022719;28;20194;-67
2022/03/12 03:47:47;;;;;;;12.27;5.07;;;;;;;;;;5021577;28;20190;-66
2022/03/12 03:50:13;;;;;;;11.77;4.88;;;;;;;;;;5022133;28;20304;-67
2022/03/12 03:52:38;;;;;;;8.40;4.80;;;;;;;;;;5024252;28;20268;-66
2022/03/12 03:55:04;;;;;;;7.40;4.90;;;;;;;;;;5027374;28;20186;-67
2022/03/12 03:57:30;;;;;;;9.48;5.60;;;;;;;;;;5022849;28;20195;-66
2022/03/12 03:59:55;;;;;;;14.50;4.80;;;;;;;;;;5011325;28;20186;-67
2022/03/12 04:02:20;;;;;;;12.13;5.43;;;;;;;;;;5035718;28;20209;-67
2022/03/12 04:04:48;;;;;;;8.18;5.00;;;;;;;;;;5030813;28;20505;-67
2022/03/12 04:07:14;;;;;;;9.30;5.00;;;;;;;;;;5042107;28;20303;-66
2022/03/12 04:09:40;;;;;;;8.82;5.45;;;;;;;;;;5017355;28;20207;-66
2022/03/12 04:12:06;;;;;;;10.60;5.97;;;;;;;;;;5026277;28;20190;-67
2022/03/12 04:14:31;;;;;;;10.23;5.75;;;;;;;;;;5013642;28;20562;-67
2022/03/12 04:16:58;;;;;;;12.68;5.63;;;;;;;;;;5031727;28;20199;-67
2022/03/12 04:19:27;;;;;;;11.50;5.70;;;;;;;;;;5038898;28;20272;-66
2022/03/12 04:21:53;;;;;;;11.57;5.10;;;;;;;;;;5038547;28;20189;-67
2022/03/12 04:24:23;;;;;;;10.25;5.07;;;;;;;;;;5036284;28;20220;-67
2022/03/12 04:26:50;;;;;;;7.57;4.72;;;;;;;;;;5031145;28;20695;-67
2022/03/12 04:29:15;;;;;;;12.83;5.40;;;;;;;;;;5029148;28;20273;-67
2022/03/12 04:31:40;;;;;;;12.20;5.63;;;;;;;;;;5029490;28;20328;-67
2022/03/12 04:34:06;;;;;;;11.20;5.23;;;;;;;;;;5026551;28;20186;-67
2022/03/12 04:36:34;;;;;;;12.50;6.10;;;;;;;;;;5025242;28;20214;-67
2022/03/12 04:38:59;;;;;;;9.80;5.25;;;;;;;;;;5025473;28;20190;-67
2022/03/12 04:41:34;;;;;;;14.77;5.70;;;;;;;;;;5026416;28;20198;-67
2022/03/12 04:44:00;;;;;;;7.40;4.65;;;;;;;;;;5024164;28;20212;-67
2022/03/12 04:46:25;;;;;;;10.50;4.90;;;;;;;;;;5028263;28;20483;-66
2022/03/12 04:48:51;;;;;;;9.67;5.40;;;;;;;;;;5021761;28;20296;-66
2022/03/12 04:51:16;;;;;;;11.38;5.63;;;;;;;;;;5024163;28;20687;-66
2022/03/12 04:53:42;;;;;;;12.30;5.88;;;;;;;;;;5020689;28;20194;-67
2022/03/12 04:56:09;;;;;;;10.98;5.65;;;;;;;;;;5033514;28;20276;-67
2022/03/12 04:58:34;;;;;;;9.00;5.37;;;;;;;;;;5019531;28;20619;-67
2022/03/12 05:01:00;;;;;;;9.87;5.30;;;;;;;;;;5018089;28;20187;-66
2022/03/12 05:03:25;;;;;;;12.70;5.60;;;;;;;;;;5027733;28;20198;-67
2022/03/12 05:05:53;;;;;;;10.95;5.38;;;;;;;;;;5029861;28;20190;-67
2022/03/12 05:08:36;;;;;;;10.50;5.03;;;;;;;;;;5026053;28;20241;-66
2022/03/12 05:11:01;;;;;;;11.93;5.80;;;;;;;;;;5033618;28;20707;-67
2022/03/12 05:13:27;;;;;;;8.97;5.73;;;;;;;;;;5024425;28;20188;-66
2022/03/12 05:16:03;;;;;;;9.53;5.30;;;;;;;;;;5031390;28;20194;-66
2022/03/12 05:18:29;;;;;;;11.27;5.83;;;;;;;;;;5024230;28;20224;-66
2022/03/12 05:20:55;;;;;;;9.05;5.57;;;;;;;;;;5028333;28;20189;-67
2022/03/12 05:23:21;;;;;;;11.10;5.43;;;;;;;;;;5026563;28;20291;-67
2022/03/12 05:25:48;;;;;;;11.27;5.87;;;;;;;;;;5022387;28;20182;-67
2022/03/12 05:28:27;;;;;;;9.53;5.47;;;;;;;;;;5026042;28;20192;-66
2022/03/12 05:30:58;;;;;;;11.23;6.00;;;;;;;;;;5029787;28;20370;-67
2022/03/12 05:33:24;;;;;;;10.93;5.90;;;;;;;;;;5028167;28;20182;-66
2022/03/12 05:35:53;;;;;;;9.97;5.90;;;;;;;;;;5033122;28;20608;-67
2022/03/12 05:38:19;;;;;;;11.73;5.80;;;;;;;;;;5024986;28;20187;-67
2022/03/12 05:40:45;;;;;;;12.67;5.70;;;;;;;;;;5034284;28;20702;-67
2022/03/12 05:43:14;;;;;;;10.20;6.60;;;;;;;;;;5045771;28;20689;-67
2022/03/12 05:45:41;;;;;;;10.37;5.37;;;;;;;;;;5041177;28;20628;-66
2022/03/12 05:48:08;;;;;;;9.43;5.60;;;;;;;;;;5046206;28;20177;-66
2022/03/12 05:50:34;;;;;;;11.40;6.20;;;;;;;;;;5038344;28;20189;-67
2022/03/12 05:52:59;;;;;;;11.07;5.80;;;;;;;;;;5036955;28;20189;-67
2022/03/12 05:55:24;;;;;;;7.00;4.80;;;;;;;;;;5044900;28;20570;-67
2022/03/12 05:57:50;;;;;;;9.20;5.63;;;;;;;;;;5034413;28;20197;-67
2022/03/12 06:00:17;;;;;;;10.73;5.93;;;;;;;;;;5033756;28;20629;-67
2022/03/12 06:02:52;;;;;;;10.23;5.87;;;;;;;;;;5033936;28;20234;-67
2022/03/12 06:05:19;;;;;;;12.10;6.17;;;;;;;;;;5036489;28;20238;-67
2022/03/12 06:07:46;;;;;;;12.07;5.90;;;;;;;;;;5041870;28;20307;-67
2022/03/12 06:10:14;;;;;;;12.30;5.93;;;;;;;;;;5039827;28;20182;-66
2022/03/12 06:12:44;;;;;;;10.97;5.57;;;;;;;;;;5035044;28;20217;-66
2022/03/12 06:15:11;;;;;;;12.07;6.10;;;;;;;;;;5028657;28;20217;-67
2022/03/12 06:17:38;;;;;;;14.03;6.53;;;;;;;;;;5037958;28;20614;-67
2022/03/12 06:20:04;;;;;;;10.60;5.73;;;;;;;;;;5036993;28;20496;-67
2022/03/12 06:22:30;;;;;;;10.73;6.00;;;;;;;;;;5024133;28;20210;-67
2022/03/12 06:24:55;;;;;;;12.03;6.73;;;;;;;;;;5016645;28;20639;-66
2022/03/12 06:27:22;;;;;;;13.27;6.20;;;;;;;;;;5010862;28;20259;-67
2022/03/12 06:29:47;;;;;;;13.97;6.17;;;;;;;;;;5030896;28;20233;-66
2022/03/12 06:32:14;;;;;;;10.00;5.87;;;;;;;;;;5032696;28;20575;-66
2022/03/12 06:34:41;;;;;;;9.37;5.20;;;;;;;;;;5020067;28;20553;-66
2022/03/12 06:37:08;;;;;;;12.07;6.33;;;;;;;;;;5030946;28;20612;-67
2022/03/12 06:39:33;;;;;;;9.83;5.67;;;;;;;;;;5024065;28;20261;-67
2022/03/12 06:41:59;;;;;;;9.60;5.40;;;;;;;;;;5041902;28;20194;-64
2022/03/12 06:44:31;;;;;;;10.67;5.97;;;;;;;;;;5037574;28;20196;-66
2022/03/12 06:46:57;;;;;;;10.57;6.23;;;;;;;;;;5042073;28;20189;-66
2022/03/12 06:49:23;;;;;;;11.33;6.60;;;;;;;;;;5032280;28;20234;-66
2022/03/12 06:51:48;;;;;;;14.20;6.30;;;;;;;;;;5045555;28;20208;-65
2022/03/12 06:54:13;;;;;;;11.40;6.40;;;;;;;;;;5038253;28;20182;-67
2022/03/12 06:56:39;;;;;;;11.60;6.73;;;;;;;;;;5041904;28;20237;-66
2022/03/12 06:59:05;;;;;;;13.37;6.00;;;;;;;;;;5038442;28;20217;-66
2022/03/12 07:01:30;;;;;;;11.40;5.77;;;;;;;;;;5041625;28;20185;-67
2022/03/12 07:03:55;;;;;;;10.63;6.53;;;;;;;;;;5031589;28;20682;-67
2022/03/12 07:06:21;;;;;;;12.23;6.57;;;;;;;;;;5044470;28;20201;-66
2022/03/12 07:08:46;;;;;;;10.90;6.70;;;;;;;;;;5036146;28;20227;-67
2022/03/12 07:11:13;;;;;;;11.83;6.47;;;;;;;;;;5039695;28;20193;-65
2022/03/12 07:13:38;;;;;;;15.10;7.70;;;;;;;;;;5032968;28;20240;-65
2022/03/12 07:16:04;;;;;;;18.60;6.30;;;;;;;;;;5038882;28;20232;-67
2022/03/12 07:18:29;;;;;;;11.80;6.60;;;;;;;;;;5036451;28;20173;-67
2022/03/12 07:20:55;;;;;;;12.90;6.77;;;;;;;;;;5038620;28;20657;-67
2022/03/12 07:23:21;;;;;;;10.57;7.00;;;;;;;;;;5036342;28;20221;-66
2022/03/12 07:25:47;;;;;;;10.90;6.30;;;;;;;;;;5038441;28;20647;-67
2022/03/12 07:28:17;;;;;;;15.00;7.20;;;;;;;;;;5044273;28;20204;-67
2022/03/12 07:30:43;;;;;;;11.40;6.93;;;;;;;;;;5031543;28;20304;-67
2022/03/12 07:33:09;;;;;;;16.88;6.72;;;;;;;;;;5037721;28;20174;-65
2022/03/12 07:35:34;;;;;;;15.50;7.73;;;;;;;;;;5032587;28;20268;-67
2022/03/12 07:37:59;;;;;;;14.82;6.55;;;;;;;;;;5032073;28;20202;-67
2022/03/12 07:40:25;;;;;;;11.57;6.53;;;;;;;;;;5037201;28;20180;-67
2022/03/12 07:42:50;;;;;;;11.83;6.83;;;;;;;;;;5025049;28;20202;-66
2022/03/12 07:45:16;;;;;;;13.68;7.10;;;;;;;;;;5026264;28;20317;-66
2022/03/12 07:47:41;;;;;;;19.58;7.30;;;;;;;;;;5028592;28;20178;-67
2022/03/12 07:50:09;;;;;;;12.40;6.07;;;;;;;;;;5027843;28;20205;-66
2022/03/12 07:52:34;;;;;;;12.50;6.40;;;;;;;;;;5033139;28;20173;-67
2022/03/12 07:54:59;;;;;;;12.15;6.50;;;;;;;;;;5017082;28;20248;-66
2022/03/12 07:57:28;;;;;;;14.27;6.80;;;;;;;;;;5019207;28;20236;-66
2022/03/12 07:59:53;;;;;;;10.60;6.50;;;;;;;;;;5026146;28;20186;-67
2022/03/12 08:02:19;;;;;;;16.98;7.75;;;;;;;;;;5025321;28;20233;-67
2022/03/12 08:04:45;;;;;;;12.60;7.18;;;;;;;;;;5016790;28;20197;-66
2022/03/12 08:07:10;;;;;;;17.58;7.00;;;;;;;;;;5033945;28;20254;-66
2022/03/12 08:09:36;;;;;;;13.38;5.90;;;;;;;;;;5007182;28;20227;-67
2022/03/12 08:12:02;;;;;;;17.33;6.88;;;;;;;;;;5019885;28;20186;-67
2022/03/12 08:14:28;;;;;;;15.38;7.03;;;;;;;;;;5015863;28;20190;-66
2022/03/12 08:16:54;;;;;;;11.32;6.60;;;;;;;;;;5020070;28;20198;-67
2022/03/12 08:19:20;;;;;;;11.48;5.80;;;;;;;;;;5019519;28;20273;-66
2022/03/12 08:21:46;;;;;;;13.10;6.85;;;;;;;;;;5022318;28;20257;-66
2022/03/12 08:24:15;;;;;;;10.48;6.03;;;;;;;;;;5003848;28;20305;-66
2022/03/12 08:26:42;;;;;;;12.57;6.85;;;;;;;;;;5003297;28;20277;-67
2022/03/12 08:29:12;;;;;;;11.93;7.07;;;;;;;;;;5001908;28;20723;-66
2022/03/12 08:31:39;;;;;;;13.82;6.97;;;;;;;;;;5012177;28;20207;-67
2022/03/12 08:34:05;;;;;;;10.65;6.70;;;;;;;;;;4993818;28;20340;-67
2022/03/12 08:36:30;;;;;;;13.07;6.70;;;;;;;;;;4996385;28;20221;-67
2022/03/12 08:38:56;;;;;;;12.25;6.40;;;;;;;;;;5001801;28;20230;-67
2022/03/12 08:41:22;;;;;;;11.05;6.38;;;;;;;;;;4999648;28;20198;-67
2022/03/12 08:43:48;;;;;;;13.05;6.85;;;;;;;;;;5002110;28;20288;-67
2022/03/12 08:46:13;;;;;;;12.27;7.07;;;;;;;;;;4996979;28;20282;-66
2022/03/12 08:48:40;;;;;;;10.73;6.10;;;;;;;;;;5000762;28;20185;-67
2022/03/12 08:51:06;;;;;;;13.23;6.10;;;;;;;;;;4998632;28;20237;-67
2022/03/12 08:53:31;;;;;;;11.48;6.32;;;;;;;;;;5008299;28;20650;-67
2022/03/12 08:56:00;;;;;;;11.20;6.75;;;;;;;;;;5017201;28;20229;-66
2022/03/12 08:58:25;;;;;;;13.95;7.15;;;;;;;;;;5013523;28;20190;-67
2022/03/12 09:00:52;;;;;;;11.73;7.32;;;;;;;;;;5016498;28;20244;-67
2022/03/12 09:03:19;;;;;;;12.18;6.45;;;;;;;;;;5026207;28;20206;-67
2022/03/12 09:05:46;;;;;;;13.00;6.78;;;;;;;;;;5024872;28;20243;-67
2022/03/12 09:08:12;;;;;;;10.73;7.15;;;;;;;;;;5032771;28;20225;-66
2022/03/12 09:10:38;;;;;;;10.50;6.43;;;;;;;;;;5032347;28;20194;-67
2022/03/12 09:13:06;;;;;;;9.70;6.18;;;;;;;;;;5031127;28;20248;-67
2022/03/12 09:15:32;;;;;;;11.30;6.43;;;;;;;;;;5033091;28;20238;-66
2022/03/12 09:17:58;;;;;;;10.32;6.38;;;;;;;;;;5042806;28;20276;-67
2022/03/12 09:20:23;;;;;;;10.38;6.53;;;;;;;;;;5044034;28;20194;-67
2022/03/12 09:22:48;;;;;;;10.63;6.32;;;;;;;;;;5034493;28;20554;-67
2022/03/12 09:25:15;;;;;;;12.88;6.30;;;;;;;;;;5033025;28;20188;-66
2022/03/12 09:27:43;;;;;;;13.35;6.63;;;;;;;;;;5033421;28;20186;-67
2022/03/12 09:30:09;;;;;;;10.55;6.30;;;;;;;;;;5023534;28;20247;-67
2022/03/12 09:32:35;;;;;;;13.73;6.75;;;;;;;;;;5031143;28;20177;-67
2022/03/12 09:35:01;;;;;;;9.65;6.25;;;;;;;;;;5033269;28;20183;-67
2022/03/12 09:37:26;;;;;;;11.73;6.15;;;;;;;;;;5028648;28;20261;-67
2022/03/12 09:39:52;;;;;;;11.35;6.30;;;;;;;;;;5039451;28;20178;-67
2022/03/12 09:42:17;;;;;;;10.45;6.47;;;;;;;;;;5029354;28;20261;-67
2022/03/12 09:44:43;;;;;;;10.73;6.50;;;;;;;;;;5017392;28;20197;-67
2022/03/12 09:47:08;;;;;;;12.73;6.32;;;;;;;;;;5036946;28;20243;-66
2022/03/12 09:49:35;;;;;;;11.52;5.85;;;;;;;;;;5040066;28;20189;-66
2022/03/12 09:52:00;;;;;;;12.57;6.03;;;;;;;;;;5020144;28;20203;-66
2022/03/12 09:54:29;;;;;;;15.15;6.07;;;;;;;;;;5030642;28;20174;-66
2022/03/12 09:56:58;;;;;;;9.90;6.63;;;;;;;;;;5023263;28;20536;-67
2022/03/12 09:59:23;;;;;;;14.00;6.35;;;;;;;;;;5029250;28;20182;-67
2022/03/12 10:01:49;;;;;;;12.18;6.80;;;;;;;;;;5037553;28;20239;-66
2022/03/12 10:04:15;;;;;;;9.48;6.10;;;;;;;;;;5024426;28;20213;-66
2022/03/12 10:06:40;;;;;;;12.70;6.47;;;;;;;;;;5029668;28;20186;-66
2022/03/12 10:09:06;;;;;;;9.90;6.65;;;;;;;;;;5045801;28;20217;-66
2022/03/12 10:11:33;;;;;;;12.10;6.20;;;;;;;;;;5034211;28;20559;-67
2022/03/12 10:13:59;;;;;;;7.95;5.38;;;;;;;;;;5023421;28;20197;-67
2022/03/12 10:16:25;;;;;;;9.02;5.85;;;;;;;;;;5018169;28;20185;-68
2022/03/12 10:18:51;;;;;;;10.55;6.18;;;;;;;;;;5026965;28;20224;-66
2022/03/12 10:21:16;;;;;;;8.35;6.13;;;;;;;;;;5024377;28;20276;-67
2022/03/12 10:23:42;;;;;;;7.63;5.22;;;;;;;;;;5017641;28;20214;-67
2022/03/12 10:26:08;;;;;;;9.70;5.55;;;;;;;;;;5021146;28;20201;-67
2022/03/12 10:28:36;;;;;;;8.25;5.88;;;;;;;;;;5022766;28;20247;-67
2022/03/12 10:31:05;;;;;;;8.02;4.97;;;;;;;;;;5015167;28;20262;-67
2022/03/12 10:33:30;;;;;;;8.27;5.43;;;;;;;;;;5028386;28;20269;-67
2022/03/12 10:36:09;;;;;;;9.00;5.38;;;;;;;;;;5020147;28;20197;-66
2022/03/12 10:38:41;;;;;;;9.18;5.75;;;;;;;;;;5028437;28;20174;-67
2022/03/12 10:41:08;;;;;;;9.68;5.70;;;;;;;;;;5022815;28;20232;-67
2022/03/12 10:43:46;;;;;;;8.45;6.05;;;;;;;;;;5029199;28;20220;-67
2022/03/12 10:46:19;;;;;;;7.88;5.70;;;;;;;;;;5018547;28;20619;-67
2022/03/12 10:48:49;;;;;;;9.38;5.78;;;;;;;;;;5028254;28;20186;-67
2022/03/12 10:51:15;;;;;;;9.95;5.75;;;;;;;;;;5022943;28;20178;-67
2022/03/12 10:53:40;;;;;;;9.93;5.75;;;;;;;;;;5030964;28;20185;-67
2022/03/12 10:56:07;;;;;;;9.98;5.53;;;;;;;;;;5032713;28;20637;-66
2022/03/12 10:58:33;;;;;;;10.95;5.55;;;;;;;;;;5036674;28;20216;-68
2022/03/12 11:01:00;;;;;;;8.85;5.72;;;;;;;;;;5028025;28;20549;-66
2022/03/12 11:03:32;;;;;;;9.20;5.80;;;;;;;;;;5028665;28;20502;-66
2022/03/12 11:05:59;;;;;;;9.63;5.57;;;;;;;;;;5021754;28;20214;-67
2022/03/12 11:08:30;;;;;;;11.57;5.68;;;;;;;;;;5026157;28;20226;-68
2022/03/12 11:10:59;;;;;;;9.90;6.00;;;;;;;;;;5021630;28;20190;-67
2022/03/12 11:13:38;;;;;;;10.02;6.00;;;;;;;;;;5029034;28;20661;-66
2022/03/12 11:16:14;;;;;;;10.65;6.43;;;;;;;;;;5034069;28;20217;-67
2022/03/12 11:18:55;;;;;;;11.63;6.22;;;;;;;;;;5025721;28;20661;-68
2022/03/12 11:21:37;;;;;;;15.02;6.25;;;;;;;;;;5021063;28;20200;-67
2022/03/12 11:24:25;;;;;;;12.60;5.72;;;;;;;;;;5025061;28;20202;-67
2022/03/12 11:26:59;;;;;;;8.70;6.00;;;;;;;;;;5018691;28;20200;-67
2022/03/12 11:29:26;;;;;;;8.50;5.82;;;;;;;;;;5044259;28;20334;-67
2022/03/12 11:31:53;;;;;;;10.32;6.43;;;;;;;;;;5037287;28;20197;-66
2022/03/12 11:34:29;;;;;;;9.90;5.70;;;;;;;;;;5036327;28;20230;-66
2022/03/12 11:36:55;;;;;;;8.80;5.22;;;;;;;;;;5019382;28;20213;-66
2022/03/12 11:39:28;;;;;;;9.40;5.93;;;;;;;;;;5025457;28;20291;-67
2022/03/12 11:42:15;;;;;;;7.72;5.15;;;;;;;;;;5023181;28;20276;-67
2022/03/12 11:44:46;;;;;;;9.10;5.28;;;;;;;;;;5028777;28;20560;-67
2022/03/12 11:47:14;;;;;;;11.23;5.28;;;;;;;;;;5034375;28;20178;-67
2022/03/12 11:49:40;;;;;;;10.02;5.20;;;;;;;;;;5035881;28;20257;-67
2022/03/12 11:52:06;;;;;;;8.95;5.88;;;;;;;;;;5032474;28;20208;-67
2022/03/12 11:54:35;;;;;;;11.75;5.78;;;;;;;;;;5034441;28;20190;-67
2022/03/12 11:57:01;;;;;;;12.20;5.97;;;;;;;;;;5034682;28;20188;-66
2022/03/12 11:59:27;;;;;;;7.30;5.05;;;;;;;;;;5032201;28;20552;-67
2022/03/12 12:02:05;;;;;;;9.95;5.43;;;;;;;;;;5031892;28;20208;-66
2022/03/12 12:04:32;;;;;;;7.72;5.05;;;;;;;;;;5034499;28;20193;-67
2022/03/12 12:06:59;;;;;;;7.95;5.20;;;;;;;;;;5033139;28;20201;-67
2022/03/12 12:09:25;;;;;;;12.07;5.38;;;;;;;;;;5016190;28;21327;-66
2022/03/12 12:11:50;;;;;;;7.78;5.00;;;;;;;;;;5017480;28;20186;-67
2022/03/12 12:14:19;;;;;;;9.38;4.93;;;;;;;;;;5034892;28;20173;-67
2022/03/12 12:16:45;;;;;;;7.72;5.22;;;;;;;;;;5028202;28;20193;-67
2022/03/12 12:19:10;;;;;;;11.82;5.18;;;;;;;;;;5032917;28;20201;-67
2022/03/12 12:21:36;;;;;;;8.15;5.28;;;;;;;;;;5039594;28;20188;-67
2022/03/12 12:24:28;;;;;;;8.52;4.72;;;;;;;;;;5037432;28;20257;-67
2022/03/12 12:27:00;;;;;;;7.22;4.35;;;;;;;;;;5026481;28;20323;-67
2022/03/12 12:29:40;;;;;;;8.43;4.55;;;;;;;;;;5034132;28;20728;-67
2022/03/12 12:32:07;;;;;;;8.70;4.85;;;;;;;;;;5030181;28;20209;-67
2022/03/12 12:34:34;;;;;;;7.82;4.95;;;;;;;;;;5038047;28;20224;-67
2022/03/12 12:37:04;;;;;;;6.65;4.40;;;;;;;;;;5039839;28;20185;-67
2022/03/12 12:39:29;;;;;;;7.85;4.50;;;;;;;;;;5032599;28;20181;-66
2022/03/12 12:41:58;;;;;;;9.10;4.93;;;;;;;;;;5038120;28;20645;-67
2022/03/12 12:44:39;;;;;;;7.40;5.03;;;;;;;;;;5037401;28;20258;-67
2022/03/12 12:47:06;;;;;;;11.20;4.97;;;;;;;;;;5037695;28;20693;-67
2022/03/12 12:49:43;;;;;;;6.97;4.40;;;;;;;;;;5028524;28;20197;-67
2022/03/12 12:52:10;;;;;;;7.30;4.82;;;;;;;;;;5032533;28;20669;-66
2022/03/12 12:54:55;;;;;;;10.70;4.63;;;;;;;;;;5037871;28;20277;-66
2022/03/12 12:57:42;;;;;;;25.20;8.10;;;;;;;;;;5040764;28;20240;-66
2022/03/12 13:00:19;;;;;;;7.40;4.22;;;;;;;;;;5016272;28;20650;-65
2022/03/12 13:02:45;;;;;;;9.93;4.80;;;;;;;;;;5033277;28;20209;-65
2022/03/12 13:05:12;;;;;;;6.57;3.97;;;;;;;;;;4338044;28;10021581;-66
2022/03/12 13:08:07;;;;;;;8.32;4.03;;;;;;;;;;5021481;28;20230;-67
2022/03/12 13:10:32;;;;;;;6.88;4.35;;;;;;;;;;5021681;28;20198;-67
2022/03/12 13:13:18;;;;;;;9.20;4.07;;;;;;;;;;5029567;28;20243;-67
2022/03/12 13:15:46;;;;;;;35.63;8.35;;;;;;;;;;5034783;28;20548;-66
2022/03/12 13:18:17;;;;;;;6.95;3.97;;;;;;;;;;5036279;28;20186;-69
2022/03/12 13:20:46;;;;;;;6.20;3.90;;;;;;;;;;5032515;28;20450;-68
2022/03/12 13:23:15;;;;;;;6.70;4.05;;;;;;;;;;5034763;28;20210;-67
2022/03/12 13:25:51;;;;;;;7.20;3.85;;;;;;;;;;5028997;28;20182;-68
2022/03/12 13:28:41;;;;;;;8.57;3.95;;;;;;;;;;5030092;28;20895;-67
2022/03/12 13:31:28;;;;;;;6.38;3.40;;;;;;;;;;5036561;28;20266;-66
2022/03/12 13:33:56;;;;;;;6.95;3.72;;;;;;;;;;5037335;28;20188;-67
2022/03/12 13:36:28;;;;;;;7.32;4.45;;;;;;;;;;5039858;28;20187;-67
2022/03/12 13:38:54;;;;;;;7.97;4.10;;;;;;;;;;5027199;28;20182;-67
2022/03/12 13:41:21;;;;;;;7.82;4.47;;;;;;;;;;5024089;28;20189;-66
2022/03/12 13:43:48;;;;;;;10.38;3.72;;;;;;;;;;5032201;28;20213;-66
2022/03/12 13:46:14;;;;;;;6.97;3.58;;;;;;;;;;5036833;28;20240;-66
2022/03/12 13:48:41;;;;;;;7.00;3.72;;;;;;;;;;5044302;28;20174;-66
2022/03/12 13:51:06;;;;;;;6.75;4.00;;;;;;;;;;5038327;28;20591;-66
2022/03/12 13:53:32;;;;;;;7.10;3.47;;;;;;;;;;5041701;28;20173;-66
2022/03/12 13:56:18;;;;;;;10.02;4.00;;;;;;;;;;5042173;28;20388;-66
2022/03/12 13:58:45;;;;;;;7.03;3.60;;;;;;;;;;5027008;28;20665;-65
2022/03/12 14:01:29;;;;;;;7.00;3.28;;;;;;;;;;5027443;28;20660;-66
2022/03/12 14:03:55;;;;;;;5.63;3.33;;;;;;;;;;5035458;28;20697;-66
2022/03/12 14:06:31;;;;;;;8.80;4.05;;;;;;;;;;5028780;28;20225;-67
2022/03/12 14:08:59;;;;;;;7.20;4.00;;;;;;;;;;5032186;28;20229;-66
2022/03/12 14:11:47;;;;;;;6.15;3.55;;;;;;;;;;5026290;28;20676;-66
2022/03/12 14:14:14;;;;;;;8.50;4.25;;;;;;;;;;5039577;28;20206;-67
2022/03/12 14:16:46;;;;;;;9.48;4.50;;;;;;;;;;5029337;28;20197;-65
2022/03/12 14:19:15;;;;;;;10.65;5.20;;;;;;;;;;5023571;28;20178;-67
2022/03/12 14:21:45;;;;;;;12.02;3.97;;;;;;;;;;5025610;28;22074;-66
2022/03/12 14:24:18;;;;;;;12.10;5.00;;;;;;;;;;5019693;28;20743;-66
2022/03/12 14:26:44;;;;;;;11.75;5.45;;;;;;;;;;5020092;28;20205;-66
2022/03/12 14:29:09;;;;;;;8.82;5.28;;;;;;;;;;5021520;28;20296;-66
2022/03/12 14:31:37;;;;;;;7.72;4.90;;;;;;;;;;5024616;28;20300;-68
2022/03/12 14:34:05;;;;;;;7.25;4.82;;;;;;;;;;5024265;28;20212;-68
2022/03/12 14:36:32;;;;;;;8.18;5.00;;;;;;;;;;5019775;28;20544;-69
2022/03/12 14:39:00;;;;;;;9.18;4.70;;;;;;;;;;5021933;28;20197;-68